SAME Airport Information

Runway Information
Runway 18 Length 9301 ft width 177 ft
Elevation 2290 ft Threshold 0 ft Heading 181
Runway 36 Length 9301 ft Width 177 ft
Elevation 2310 ft Threshold 0 ft Heading 1
Airport Frequencies
Type ATIS Name ATIS Frequency 114.9 MHZ
Type GND Name GND Frequency 121.95 MHZ
Type TCA Name MENDOZA CO Frequency 124.2 MHZ
Type TWR Name MENDOZA AP Frequency 119.9 MHZ
Airport Navaids
Type VOR-DME Name Mendoza Frequency 114900 KHZ
Airport Weather Information & NOTAM
ADDS - METARS form results

(0851 UTC 24 April 2018)
 
METAR text: SAME 240800Z 00000KT CAVOK 13/10 Q1017
Conditions at: SAME (MENDOZA/EL PLUME, AR) observed 0800 UTC 24 April 2018
Temperature: 13.0°C (55°F)
Dewpoint: 10.0°C (50°F) [RH = 82%]
Pressure (altimeter): 30.03 inches Hg (1017.0 mb)
Winds: calm
Visibility: 6 or more miles (10+ km)
Ceiling: ceiling and visibility are OK
Clouds: unknown
Weather: no significant weather observed at this time